Kushiro Airport
RJCK : now visible

Airfield :











YOU CAN JOIN US ON...

 
LOGIN :

Register | Disclaimer

   EN    FR    IT 

 









Legend :    VFR   Marginal VFR   IFR   Intensive IFR   Very Intensive IFR
Visi :
Ceiling :
>= 8 km
>= 3000ft
5 to 8 km
1000 to 3000 ft
1500m to 5 km
500 to 1000 ft
800 to 1500m
200 to 500 ft
< 800m
< 200 ft
Symbols :   Thunderstorms  Fog  Heavy snow  Heavy precipitations  Wind > 20 kt






- Airport Elevation : 327 ft
- IATA code : KUH


RJCK - Kushiro

CURRENT METAR :
  • 292300Z 16008KT 9999 FEW020 12/08 Q1010

EXPIRED METARs :
  • 292200Z AUTO VRB02KT 9999 FEW016 12/08 Q1010
  • 292100Z AUTO 18003KT 9999 NCD 09/07 Q1010
  • 292000Z AUTO 21003KT 9999 NCD 07/07 Q1009
  • 291900Z AUTO 22003KT 9999 NSC 06/05 Q1009

TAF TAF RJCK
Valid from the 29 at 18:00 until the 31 at 00:00 UTC


291705Z 2918/3100 26005KT 9999 FEW015 BKN030
BECMG 2923/3001 19012KT
BECMG 3003/3005 07006KT
BECMG 3012/3015 34005KT
RJJJ FIR / Asia



MET'MAP, your aeronautical weather chart ! - Copyright ORBIFLY December 2007 - Disclaimer

ORBIFLY MET'MAP TEAM :

Programming & Development : Alexandra Zaïnal
Original concept : Baudouin d'Aumeries
Technical & hardware support : Manuel Goepfert
Assistance : Marc-Olivier Méhu




SOURCES & CREDITS :

   NOAA       Earth
Advisory